Time,TemperatureF,DewpointF,PressureIn,WindDirection,WindDirectionDegrees,WindSpeedMPH,WindSpeedGustMPH,Humidity,HourlyPrecipIn,Conditions,Clouds,dailyrainin,SoftwareType,DateUTC
2013-03-18 00:00:00,36.8,33.0,29.98,East,101,0.0,0.0,86,0.00,,,0.00,Wunderground v.1.15,2013-03-18 07:00:00,
2013-03-18 00:30:00,36.3,32.5,29.98,East,92,0.0,0.0,86,0.00,,,0.00,Wunderground v.1.15,2013-03-18 07:30:00,
2013-03-18 01:00:00,35.8,32.0,29.97,East,94,1.0,1.0,86,0.00,,,0.00,Wunderground v.1.15,2013-03-18 08:00:00,
2013-03-18 01:30:00,35.5,31.4,29.97,East,96,0.0,1.0,85,0.00,,,0.00,Wunderground v.1.15,2013-03-18 08:30:00,
2013-03-18 02:00:00,35.5,30.5,29.97,East,87,1.0,1.0,82,0.00,,,0.00,Wunderground v.1.15,2013-03-18 09:00:00,
2013-03-18 02:30:00,36.4,29.6,29.96,East,90,0.0,0.0,76,0.00,,,0.00,Wunderground v.1.15,2013-03-18 09:30:00,
2013-03-18 03:00:00,35.3,28.8,29.97,ESE,104,0.0,0.0,77,0.00,,,0.00,Wunderground v.1.15,2013-03-18 10:00:00,
2013-03-18 03:30:00,35.5,27.0,29.95,ENE,61,0.0,0.0,71,0.00,,,0.00,Wunderground v.1.15,2013-03-18 10:30:00,
2013-03-18 04:00:00,34.3,26.5,29.95,East,93,0.0,0.0,73,0.00,,,0.00,Wunderground v.1.15,2013-03-18 11:00:00,
2013-03-18 04:30:00,32.6,25.9,29.95,East,85,0.0,0.0,76,0.00,,,0.00,Wunderground v.1.15,2013-03-18 11:30:00,
2013-03-18 05:00:00,31.7,26.2,29.96,East,85,1.0,1.0,80,0.00,,,0.00,Wunderground v.1.15,2013-03-18 12:00:00,
2013-03-18 05:30:00,31.2,25.7,29.97,East,94,1.0,1.0,80,0.00,,,0.00,Wunderground v.1.15,2013-03-18 12:30:00,
2013-03-18 06:00:00,31.8,27.2,29.97,East,80,0.0,0.0,83,0.00,,,0.00,Wunderground v.1.15,2013-03-18 13:00:00,
2013-03-18 06:30:00,31.9,27.6,29.98,ENE,72,1.0,1.0,84,0.00,,,0.00,Wunderground v.1.15,2013-03-18 13:30:00,
2013-03-18 07:00:00,31.6,28.5,29.99,East,82,0.0,0.0,88,0.00,,,0.00,Wunderground v.1.15,2013-03-18 14:00:00,
2013-03-18 07:30:00,32.3,29.4,29.99,East,93,0.0,0.0,89,0.00,,,0.00,Wunderground v.1.15,2013-03-18 14:30:00,
2013-03-18 08:00:00,38.4,34.0,30.01,NE,54,0.0,0.0,84,0.00,,,0.00,Wunderground v.1.15,2013-03-18 15:00:00,
2013-03-18 08:30:00,46.1,35.4,30.01,NE,54,0.0,0.0,66,0.00,,,0.00,Wunderground v.1.15,2013-03-18 15:30:00,
2013-03-18 09:00:00,53.9,31.9,30.01,NNW,343,0.0,0.0,43,0.00,,,0.00,Wunderground v.1.15,2013-03-18 16:00:00,
2013-03-18 09:30:00,56.2,31.5,30.01,WNW,298,1.0,2.0,39,0.00,,,0.00,Wunderground v.1.15,2013-03-18 16:30:00,
2013-03-18 10:00:00,56.0,33.2,30.02,WNW,292,1.0,1.0,42,0.00,,,0.00,Wunderground v.1.15,2013-03-18 17:00:00,
2013-03-18 10:30:00,58.8,34.5,30.01,WNW,293,1.0,1.0,40,0.00,,,0.00,Wunderground v.1.15,2013-03-18 17:30:00,
2013-03-18 11:00:00,59.6,35.9,30.02,WNW,284,1.0,1.0,41,0.00,,,0.00,Wunderground v.1.15,2013-03-18 18:00:00,
2013-03-18 11:30:00,57.8,39.8,30.03,NW,306,2.0,2.0,51,0.00,,,0.00,Wunderground v.1.15,2013-03-18 18:30:00,
2013-03-18 12:00:00,59.5,39.8,30.02,WNW,301,2.0,3.0,48,0.00,,,0.00,Wunderground v.1.15,2013-03-18 19:00:00,
2013-03-18 12:29:00,60.0,40.8,30.01,West,276,2.0,2.0,49,0.00,,,0.00,Wunderground v.1.15,2013-03-18 19:29:00,
2013-03-18 12:59:00,60.5,42.3,30.01,WNW,293,2.0,2.0,51,0.00,,,0.00,Wunderground v.1.15,2013-03-18 19:59:00,
2013-03-18 13:30:00,60.1,40.9,30.00,WNW,294,3.0,5.0,49,0.00,,,0.00,Wunderground v.1.15,2013-03-18 20:30:00,
2013-03-18 14:00:00,59.6,42.9,30.00,NW,320,3.0,3.0,54,0.00,,,0.00,Wunderground v.1.15,2013-03-18 21:00:00,
2013-03-18 14:30:00,60.8,43.1,30.00,WSW,251,2.0,2.0,52,0.00,,,0.00,Wunderground v.1.15,2013-03-18 21:30:00,
2013-03-18 15:00:00,61.0,44.2,30.00,West,272,2.0,2.0,54,0.00,,,0.00,Wunderground v.1.15,2013-03-18 22:00:00,
2013-03-18 15:29:00,61.2,44.9,30.00,NNW,328,2.0,2.0,55,0.00,,,0.00,Wunderground v.1.15,2013-03-18 22:29:00,
2013-03-18 16:00:00,58.9,43.7,30.00,West,281,2.0,2.0,57,0.00,,,0.00,Wunderground v.1.15,2013-03-18 23:00:00,
2013-03-18 16:30:00,57.9,42.8,30.00,WNW,295,1.0,1.0,57,0.00,,,0.00,Wunderground v.1.15,2013-03-18 23:30:00,
2013-03-18 17:00:00,57.6,41.5,30.00,WNW,292,1.0,1.0,55,0.00,,,0.00,Wunderground v.1.15,2013-03-19 00:00:00,
2013-03-18 17:30:00,57.5,42.4,30.00,WNW,291,0.0,0.0,57,0.00,,,0.00,Wunderground v.1.15,2013-03-19 00:30:00,
2013-03-18 18:00:00,55.1,41.9,30.00,NW,321,1.0,2.0,61,0.00,,,0.00,Wunderground v.1.15,2013-03-19 01:00:00,
2013-03-18 18:30:00,53.4,40.7,30.01,WNW,290,0.0,0.0,62,0.00,,,0.00,Wunderground v.1.15,2013-03-19 01:30:00,
2013-03-18 19:00:00,51.7,41.1,30.01,WNW,284,0.0,0.0,67,0.00,,,0.00,Wunderground v.1.15,2013-03-19 02:00:00,
2013-03-18 19:30:00,49.8,40.4,30.00,WNW,284,0.0,0.0,70,0.00,,,0.00,Wunderground v.1.15,2013-03-19 02:30:00,
2013-03-18 20:00:00,47.4,39.5,30.01,WNW,303,0.0,0.0,74,0.00,,,0.00,Wunderground v.1.15,2013-03-19 03:00:00,
2013-03-18 20:30:00,46.3,40.1,30.02,WNW,303,0.0,0.0,79,0.00,,,0.00,Wunderground v.1.15,2013-03-19 03:30:00,
2013-03-18 21:30:00,46.6,42.6,30.06,WNW,301,0.0,1.0,86,0.00,,,0.00,Wunderground v.1.15,2013-03-19 04:30:00,
2013-03-18 22:00:00,46.3,43.2,30.06,East,85,1.0,2.0,89,0.00,,,0.00,Wunderground v.1.15,2013-03-19 05:00:00,
2013-03-18 22:30:00,45.3,41.7,30.05,East,87,0.0,0.0,87,0.00,,,0.00,Wunderground v.1.15,2013-03-19 05:30:00,
2013-03-18 23:00:00,43.5,40.5,30.07,East,87,0.0,0.0,89,0.00,,,0.00,Wunderground v.1.15,2013-03-19 06:00:00,
2013-03-18 23:30:00,41.0,38.0,30.06,East,87,0.0,0.0,89,0.00,,,0.00,Wunderground v.1.15,2013-03-19 06:30:00,